Time;durP1;ratioP1;P1;durP2;ratioP2;P2;SDS_P1;SDS_P2;PMS_P1;PMS_P2;Temp;Humidity;BMP_temperature;BMP_pressure;BME280_temperature;BME280_humidity;BME280_pressure;Samples;Min_cycle;Max_cycle;Signal;HPM_P1;HPM_P2
2022/07/09 00:01:28;;;;;;;;;;;14.40;99.90;;;;;;5046707;28;20432;-67
2022/07/09 00:03:55;;;;;;;;;;;14.40;99.90;;;;;;5029432;28;19916;-67
2022/07/09 00:06:20;;;;;;;;;;;14.40;99.90;;;;;;5046388;28;19913;-67
2022/07/09 00:08:46;;;;;;;;;;;14.30;99.90;;;;;;5047145;28;20004;-67
2022/07/09 00:11:11;;;;;;;;;;;14.20;99.90;;;;;;5026596;28;19979;-67
2022/07/09 00:13:36;;;;;;;;;;;14.20;99.90;;;;;;5046930;28;19944;-67
2022/07/09 00:16:02;;;;;;;;;;;14.10;99.90;;;;;;5046609;28;20007;-67
2022/07/09 00:18:28;;;;;;;;;;;14.10;99.90;;;;;;5046857;28;20374;-67
2022/07/09 00:20:54;;;;;;;;;;;14.00;99.90;;;;;;5028756;28;19921;-67
2022/07/09 00:23:20;;;;;;;;;;;14.00;99.90;;;;;;5042444;28;20048;-67
2022/07/09 00:25:45;;;;;;;;;;;13.90;99.90;;;;;;5042801;28;20011;-67
2022/07/09 00:28:11;;;;;;;;;;;13.90;99.90;;;;;;5046165;28;20360;-67
2022/07/09 00:30:36;;;;;;;;;;;13.90;99.90;;;;;;5047284;28;20240;-67
2022/07/09 00:33:02;;;;;;;;;;;13.80;99.90;;;;;;5046216;28;20299;-67
2022/07/09 00:35:27;;;;;;;;;;;13.80;99.90;;;;;;5046734;28;19909;-69
2022/07/09 00:37:53;;;;;;;;;;;13.90;99.90;;;;;;5047444;28;20011;-68
2022/07/09 00:40:19;;;;;;;;;;;13.80;99.90;;;;;;5044194;28;20438;-68
2022/07/09 00:42:44;;;;;;;;;;;13.90;99.90;;;;;;5046913;28;20407;-67
2022/07/09 00:45:10;;;;;;;;;;;13.90;99.90;;;;;;5046334;28;20130;-67
2022/07/09 00:47:35;;;;;;;;;;;13.90;99.90;;;;;;5046634;28;19909;-67
2022/07/09 00:50:01;;;;;;;;;;;13.80;99.90;;;;;;5025808;28;19916;-66
2022/07/09 00:52:27;;;;;;;;;;;13.80;99.90;;;;;;5046096;28;19913;-67
2022/07/09 00:54:52;;;;;;;;;;;13.80;99.90;;;;;;5028616;28;19909;-67
2022/07/09 00:57:19;;;;;;;;;;;13.70;99.90;;;;;;5028200;28;19913;-66
2022/07/09 00:59:45;;;;;;;;;;;13.70;99.90;;;;;;5060891;28;19994;-67
2022/07/09 01:02:11;;;;;;;;;;;13.70;99.90;;;;;;5065665;28;20295;-67
2022/07/09 01:04:37;;;;;;;;;;;13.70;99.90;;;;;;5035006;28;19913;-67
2022/07/09 01:07:03;;;;;;;;;;;13.70;99.90;;;;;;5065796;28;19912;-67
2022/07/09 01:09:29;;;;;;;;;;;13.70;99.90;;;;;;5065243;28;19965;-67
2022/07/09 01:11:55;;;;;;;;;;;13.60;99.90;;;;;;5064401;28;19916;-67
2022/07/09 01:14:20;;;;;;;;;;;13.50;99.90;;;;;;5066376;28;19916;-67
2022/07/09 01:16:46;;;;;;;;;;;13.50;99.90;;;;;;5066426;28;20029;-67
2022/07/09 01:19:11;;;;;;;;;;;13.40;99.90;;;;;;5065721;28;19909;-67
2022/07/09 01:21:37;;;;;;;;;;;13.50;99.90;;;;;;5045700;28;19920;-67
2022/07/09 01:24:02;;;;;;;;;;;13.60;99.90;;;;;;5065845;28;20117;-67
2022/07/09 01:26:28;;;;;;;;;;;13.60;99.90;;;;;;5066339;28;19920;-67
2022/07/09 01:28:53;;;;;;;;;;;13.60;99.90;;;;;;5066457;28;19908;-67
2022/07/09 01:31:19;;;;;;;;;;;13.50;99.90;;;;;;5065834;28;20011;-67
2022/07/09 01:33:45;;;;;;;;;;;13.50;99.90;;;;;;5066084;28;20435;-67
2022/07/09 01:36:11;;;;;;;;;;;13.50;99.90;;;;;;5048624;28;19916;-67
2022/07/09 01:38:36;;;;;;;;;;;13.30;99.90;;;;;;5051451;28;20352;-67
2022/07/09 01:41:02;;;;;;;;;;;13.40;99.90;;;;;;5067540;28;19963;-67
2022/07/09 01:43:27;;;;;;;;;;;13.40;99.90;;;;;;5069200;28;19908;-67
2022/07/09 01:45:53;;;;;;;;;;;13.30;99.90;;;;;;5069506;28;20011;-67
2022/07/09 01:48:18;;;;;;;;;;;13.30;99.90;;;;;;5068929;28;19958;-67
2022/07/09 01:50:44;;;;;;;;;;;13.30;99.90;;;;;;5051442;28;19909;-67
2022/07/09 01:53:09;;;;;;;;;;;13.20;99.90;;;;;;5068737;28;20331;-67
2022/07/09 01:55:35;;;;;;;;;;;13.20;99.90;;;;;;5069749;28;19912;-67
2022/07/09 01:58:01;;;;;;;;;;;13.20;99.90;;;;;;5069253;28;19917;-67
2022/07/09 02:00:30;;;;;;;;;;;13.10;99.90;;;;;;5065930;28;20372;-67
2022/07/09 02:02:55;;;;;;;;;;;13.10;99.90;;;;;;5051199;28;19919;-67
2022/07/09 02:05:21;;;;;;;;;;;13.00;99.90;;;;;;5069136;28;19995;-67
2022/07/09 02:07:47;;;;;;;;;;;13.00;99.90;;;;;;5069156;28;19909;-67
2022/07/09 02:10:13;;;;;;;;;;;13.00;99.90;;;;;;5066687;28;19912;-67
2022/07/09 02:12:38;;;;;;;;;;;13.10;99.90;;;;;;5069291;28;19958;-67
2022/07/09 02:15:05;;;;;;;;;;;13.10;99.90;;;;;;5066775;28;19909;-67
2022/07/09 02:17:30;;;;;;;;;;;13.00;99.90;;;;;;5051488;28;19956;-67
2022/07/09 02:19:56;;;;;;;;;;;13.00;99.90;;;;;;5048538;28;20410;-67
2022/07/09 02:22:21;;;;;;;;;;;13.10;99.90;;;;;;5067618;28;19913;-66
2022/07/09 02:24:47;;;;;;;;;;;13.40;99.90;;;;;;5068821;28;20000;-67
2022/07/09 02:27:12;;;;;;;;;;;13.40;99.90;;;;;;5068338;28;19995;-67
2022/07/09 02:29:38;;;;;;;;;;;13.40;99.90;;;;;;5068837;28;20383;-67
2022/07/09 02:32:04;;;;;;;;;;;13.30;99.90;;;;;;5068793;28;19980;-67
2022/07/09 02:34:30;;;;;;;;;;;13.20;99.90;;;;;;5067602;28;19916;-67
2022/07/09 02:36:55;;;;;;;;;;;13.20;99.90;;;;;;5066767;28;20312;-67
2022/07/09 02:39:21;;;;;;;;;;;13.30;99.90;;;;;;5067757;28;19919;-67
2022/07/09 02:41:46;;;;;;;;;;;13.40;99.90;;;;;;5048632;28;19912;-67
2022/07/09 02:44:12;;;;;;;;;;;13.70;99.90;;;;;;5049756;28;19908;-67
2022/07/09 02:46:38;;;;;;;;;;;14.00;99.90;;;;;;5059209;28;19924;-67
2022/07/09 02:49:03;;;;;;;;;;;14.10;99.90;;;;;;5068465;28;19916;-67
2022/07/09 02:51:29;;;;;;;;;;;14.10;99.90;;;;;;5049923;28;19908;-67
2022/07/09 02:53:54;;;;;;;;;;;14.10;99.90;;;;;;5068290;28;20253;-67
2022/07/09 02:56:20;;;;;;;;;;;14.40;99.90;;;;;;5067431;28;19916;-67
2022/07/09 02:58:46;;;;;;;;;;;14.60;99.90;;;;;;5067983;28;19921;-67
2022/07/09 03:01:11;;;;;;;;;;;14.70;99.90;;;;;;5049845;28;19920;-67
2022/07/09 03:03:36;;;;;;;;;;;14.80;99.90;;;;;;5068045;28;20003;-67
2022/07/09 03:06:02;;;;;;;;;;;14.70;99.90;;;;;;5068058;28;20155;-67
2022/07/09 03:08:28;;;;;;;;;;;14.90;99.90;;;;;;5063536;28;19912;-67
2022/07/09 03:10:53;;;;;;;;;;;15.00;99.90;;;;;;5065820;28;19919;-67
2022/07/09 03:13:19;;;;;;;;;;;15.20;99.90;;;;;;5047541;28;19913;-67
2022/07/09 03:15:45;;;;;;;;;;;15.30;99.90;;;;;;5067980;28;19919;-67
2022/07/09 03:18:10;;;;;;;;;;;15.30;99.90;;;;;;5067150;28;19956;-67
2022/07/09 03:20:36;;;;;;;;;;;15.30;99.90;;;;;;5067725;28;19909;-67
2022/07/09 03:23:02;;;;;;;;;;;15.50;99.90;;;;;;5067232;28;20283;-67
2022/07/09 03:25:28;;;;;;;;;;;15.50;99.90;;;;;;5066770;28;20995;-67
2022/07/09 03:27:54;;;;;;;;;;;15.60;99.90;;;;;;5049493;28;19912;-67
2022/07/09 03:30:19;;;;;;;;;;;15.70;99.90;;;;;;5064790;28;20059;-66
2022/07/09 03:32:45;;;;;;;;;;;15.80;99.90;;;;;;5067555;28;19923;-66
2022/07/09 03:35:10;;;;;;;;;;;15.90;99.90;;;;;;5048171;28;19912;-67
2022/07/09 03:37:36;;;;;;;;;;;16.00;99.90;;;;;;5066631;28;19955;-67
2022/07/09 03:40:02;;;;;;;;;;;16.00;99.90;;;;;;5064747;28;20283;-67
2022/07/09 03:42:28;;;;;;;;;;;16.10;99.90;;;;;;5045715;28;20326;-67
2022/07/09 03:44:53;;;;;;;;;;;16.10;99.90;;;;;;5065738;28;19920;-67
2022/07/09 03:47:19;;;;;;;;;;;16.20;99.90;;;;;;5065501;28;19909;-67
2022/07/09 03:49:44;;;;;;;;;;;16.20;99.90;;;;;;5066312;28;19908;-67
2022/07/09 03:52:10;;;;;;;;;;;16.20;99.90;;;;;;5065422;28;19999;-67
2022/07/09 03:54:35;;;;;;;;;;;16.20;99.90;;;;;;5046254;28;19909;-66
2022/07/09 03:57:01;;;;;;;;;;;16.20;99.90;;;;;;5049247;28;19916;-67
2022/07/09 03:59:26;;;;;;;;;;;16.20;99.90;;;;;;5065545;28;19985;-67
2022/07/09 04:01:52;;;;;;;;;;;16.30;99.90;;;;;;5048175;28;19960;-67
2022/07/09 04:04:17;;;;;;;;;;;16.30;99.90;;;;;;5067162;28;19955;-67
2022/07/09 04:06:43;;;;;;;;;;;16.40;99.90;;;;;;5049244;28;19912;-67
2022/07/09 04:09:08;;;;;;;;;;;16.40;99.90;;;;;;5067333;28;19919;-67
2022/07/09 04:11:34;;;;;;;;;;;16.50;99.90;;;;;;5064092;28;20395;-66
2022/07/09 04:14:00;;;;;;;;;;;16.50;99.90;;;;;;5067135;28;19978;-66
2022/07/09 04:16:26;;;;;;;;;;;16.50;99.90;;;;;;5066467;28;20426;-67
2022/07/09 04:18:52;;;;;;;;;;;16.60;99.90;;;;;;5067130;28;19915;-65
2022/07/09 04:21:17;;;;;;;;;;;16.60;99.90;;;;;;5066202;28;20402;-65
2022/07/09 04:23:43;;;;;;;;;;;16.60;99.90;;;;;;5066783;28;20220;-65
2022/07/09 04:26:09;;;;;;;;;;;16.60;99.90;;;;;;5066740;28;20387;-65
2022/07/09 04:28:37;;;;;;;;;;;16.60;99.90;;;;;;5066242;28;19953;-65
2022/07/09 04:31:03;;;;;;;;;;;16.70;99.90;;;;;;5063137;28;19912;-65
2022/07/09 04:33:29;;;;;;;;;;;16.70;99.90;;;;;;5066565;28;19919;-65
2022/07/09 04:35:54;;;;;;;;;;;16.80;99.90;;;;;;5067313;28;19954;-65
2022/07/09 04:38:20;;;;;;;;;;;16.90;99.90;;;;;;5066290;28;19924;-64
2022/07/09 04:40:45;;;;;;;;;;;16.90;99.90;;;;;;5046443;28;20295;-64
2022/07/09 04:43:11;;;;;;;;;;;17.00;99.90;;;;;;5066814;28;20021;-64
2022/07/09 04:45:36;;;;;;;;;;;17.00;99.90;;;;;;5066346;28;19912;-63
2022/07/09 04:48:02;;;;;;;;;;;17.00;99.90;;;;;;5066873;28;20287;-65
2022/07/09 04:50:27;;;;;;;;;;;17.10;99.90;;;;;;5066184;28;19908;-65
2022/07/09 04:52:53;;;;;;;;;;;17.10;99.90;;;;;;5066550;28;19912;-65
2022/07/09 04:55:18;;;;;;;;;;;17.10;99.90;;;;;;5066224;28;19959;-65
2022/07/09 04:57:44;;;;;;;;;;;17.20;99.90;;;;;;5045557;28;20000;-65
2022/07/09 05:00:10;;;;;;;;;;;17.30;99.90;;;;;;5066353;28;19975;-65
2022/07/09 05:02:37;;;;;;;;;;;17.40;99.90;;;;;;5047767;28;19920;-65
2022/07/09 05:05:03;;;;;;;;;;;17.40;99.90;;;;;;5066462;28;19912;-65
2022/07/09 05:07:29;;;;;;;;;;;17.60;99.90;;;;;;5065878;28;19909;-65
2022/07/09 05:09:55;;;;;;;;;;;17.50;99.90;;;;;;5066783;28;19912;-65
2022/07/09 05:12:20;;;;;;;;;;;17.30;99.90;;;;;;5067907;28;20030;-65
2022/07/09 05:14:46;;;;;;;;;;;17.20;99.90;;;;;;5070248;28;19912;-65
2022/07/09 05:17:12;;;;;;;;;;;17.10;99.90;;;;;;5070154;28;19915;-65
2022/07/09 05:19:37;;;;;;;;;;;17.10;99.90;;;;;;5069847;28;19916;-65
2022/07/09 05:22:03;;;;;;;;;;;17.10;99.90;;;;;;5069794;28;19912;-65
2022/07/09 05:24:29;;;;;;;;;;;17.10;99.90;;;;;;5069863;28;19913;-65
2022/07/09 05:26:54;;;;;;;;;;;17.10;99.90;;;;;;5069892;28;19909;-65
2022/07/09 05:29:22;;;;;;;;;;;17.20;99.90;;;;;;5051333;28;19965;-65
2022/07/09 05:31:48;;;;;;;;;;;17.30;99.90;;;;;;5051874;28;19912;-65
2022/07/09 05:34:14;;;;;;;;;;;17.50;99.90;;;;;;5070018;28;19917;-64
2022/07/09 05:36:40;;;;;;;;;;;17.60;99.90;;;;;;5050921;28;19916;-65
2022/07/09 05:39:07;;;;;;;;;;;17.70;99.90;;;;;;5069659;28;19912;-65
2022/07/09 05:41:32;;;;;;;;;;;17.90;99.90;;;;;;5048989;28;19912;-65
2022/07/09 05:43:58;;;;;;;;;;;18.00;99.90;;;;;;5051478;28;19916;-65
2022/07/09 05:46:23;;;;;;;;;;;18.20;99.90;;;;;;5069218;28;20288;-65
2022/07/09 05:48:49;;;;;;;;;;;18.30;99.90;;;;;;5069953;28;19959;-65
2022/07/09 05:51:15;;;;;;;;;;;18.40;99.90;;;;;;5067645;28;20014;-65
2022/07/09 05:53:40;;;;;;;;;;;18.50;99.90;;;;;;5069067;28;19986;-65
2022/07/09 05:56:07;;;;;;;;;;;18.70;99.90;;;;;;5069391;28;20297;-65
2022/07/09 05:58:32;;;;;;;;;;;18.70;99.90;;;;;;5066301;28;19916;-65
2022/07/09 06:00:58;;;;;;;;;;;18.70;99.90;;;;;;5069507;28;20388;-65
2022/07/09 06:03:23;;;;;;;;;;;18.50;99.90;;;;;;5050573;28;19917;-65
2022/07/09 06:05:49;;;;;;;;;;;18.50;99.90;;;;;;5069305;28;19913;-65
2022/07/09 06:08:14;;;;;;;;;;;18.30;99.90;;;;;;5069275;28;19996;-65
2022/07/09 06:10:40;;;;;;;;;;;18.20;99.90;;;;;;5066326;28;20278;-65
2022/07/09 06:13:05;;;;;;;;;;;18.20;99.90;;;;;;5051073;28;20007;-65
2022/07/09 06:15:31;;;;;;;;;;;18.40;99.90;;;;;;5067175;28;19913;-65
2022/07/09 06:17:56;;;;;;;;;;;18.40;99.90;;;;;;5074831;28;20239;-67
2022/07/09 06:20:22;;;;;;;;;;;18.40;99.90;;;;;;5058890;28;20287;-67
2022/07/09 06:22:48;;;;;;;;;;;18.20;99.90;;;;;;5062507;28;19935;-67
2022/07/09 06:25:13;;;;;;;;;;;18.20;99.90;;;;;;5059809;28;19912;-64
2022/07/09 06:27:40;;;;;;;;;;;18.30;99.90;;;;;;5052005;28;20007;-64
2022/07/09 06:30:06;;;;;;;;;;;18.20;99.90;;;;;;5052786;28;20275;-64
2022/07/09 06:32:31;;;;;;;;;;;18.20;99.90;;;;;;5067760;28;19927;-64
2022/07/09 06:34:57;;;;;;;;;;;18.20;99.90;;;;;;5070032;28;19912;-64
2022/07/09 06:37:22;;;;;;;;;;;18.40;99.90;;;;;;5067980;28;20478;-64
2022/07/09 06:39:49;;;;;;;;;;;18.70;99.90;;;;;;5067625;28;19913;-63
2022/07/09 06:42:16;;;;;;;;;;;18.90;99.90;;;;;;5067836;28;19916;-63
2022/07/09 06:44:42;;;;;;;;;;;19.10;99.90;;;;;;5042616;28;19920;-64
2022/07/09 06:47:08;;;;;;;;;;;19.20;99.90;;;;;;5051166;28;19913;-63
2022/07/09 06:49:33;;;;;;;;;;;19.30;99.90;;;;;;5045394;28;19909;-64
2022/07/09 06:51:59;;;;;;;;;;;19.50;99.90;;;;;;5070093;28;20334;-64
2022/07/09 06:54:25;;;;;;;;;;;19.80;99.90;;;;;;5068546;28;20306;-64
2022/07/09 06:56:50;;;;;;;;;;;19.50;99.90;;;;;;5077235;28;19954;-67
2022/07/09 06:59:28;;;;;;;;;;;19.40;99.90;;;;;;5059042;28;19920;-68
2022/07/09 07:01:53;;;;;;;;;;;20.00;99.90;;;;;;5017135;28;19999;-67
2022/07/09 07:04:54;;;;;;;;;;;19.80;99.90;;;;;;5059774;28;20340;-67
2022/07/09 07:07:58;;;;;;;;;;;19.80;99.90;;;;;;5051210;28;20412;-67
2022/07/09 07:10:44;;;;;;;;;;;19.60;99.90;;;;;;5051750;28;19959;-67
2022/07/09 07:13:10;;;;;;;;;;;19.60;99.90;;;;;;5055446;28;19921;-64
2022/07/09 07:15:36;;;;;;;;;;;19.90;99.90;;;;;;5048124;28;19909;-65
2022/07/09 07:18:01;;;;;;;;;;;19.80;99.90;;;;;;5049049;28;20398;-66
2022/07/09 07:20:27;;;;;;;;;;;19.60;99.90;;;;;;5049669;28;19909;-66
2022/07/09 07:22:52;;;;;;;;;;;19.40;99.90;;;;;;5049588;28;19909;-66
2022/07/09 07:25:18;;;;;;;;;;;19.50;99.90;;;;;;5023654;28;19967;-67
2022/07/09 07:27:43;;;;;;;;;;;19.50;99.90;;;;;;5043691;28;20388;-67
2022/07/09 07:30:09;;;;;;;;;;;19.70;99.90;;;;;;5048788;28;20270;-64
2022/07/09 07:32:34;;;;;;;;;;;19.90;99.90;;;;;;5029489;28;19913;-64
2022/07/09 07:35:02;;;;;;;;;;;20.00;99.90;;;;;;5048790;28;19931;-65
2022/07/09 07:37:28;;;;;;;;;;;20.20;99.90;;;;;;5047804;28;19923;-65
2022/07/09 07:39:54;;;;;;;;;;;20.40;99.90;;;;;;5006826;28;20047;-64
2022/07/09 07:42:19;;;;;;;;;;;20.60;99.90;;;;;;5003230;28;19913;-65
2022/07/09 07:44:45;;;;;;;;;;;20.70;99.90;;;;;;5009988;28;19918;-67
2022/07/09 07:47:10;;;;;;;;;;;20.60;99.90;;;;;;5007343;28;20000;-67
2022/07/09 07:49:36;;;;;;;;;;;20.60;99.90;;;;;;5006010;28;20046;-67
2022/07/09 07:52:01;;;;;;;;;;;20.80;99.90;;;;;;5008257;28;19921;-67
2022/07/09 07:54:27;;;;;;;;;;;21.10;99.90;;;;;;4988259;28;19961;-67
2022/07/09 07:56:52;;;;;;;;;;;21.30;99.90;;;;;;5005230;28;19914;-67
2022/07/09 07:59:18;;;;;;;;;;;21.20;99.90;;;;;;5015848;28;19942;-66
2022/07/09 08:01:43;;;;;;;;;;;21.20;99.90;;;;;;5026003;28;20281;-66
2022/07/09 08:04:11;;;;;;;;;;;21.10;99.90;;;;;;5024635;28;20214;-66
2022/07/09 08:06:36;;;;;;;;;;;21.00;99.90;;;;;;5023770;28;20260;-66
2022/07/09 08:09:02;;;;;;;;;;;21.00;99.90;;;;;;5023362;28;20055;-66
2022/07/09 08:11:28;;;;;;;;;;;21.30;99.90;;;;;;5038859;28;19913;-66
2022/07/09 08:13:53;;;;;;;;;;;21.40;99.90;;;;;;5045410;28;19928;-66
2022/07/09 08:16:19;;;;;;;;;;;21.40;99.90;;;;;;5044887;28;19921;-65
2022/07/09 08:18:46;;;;;;;;;;;21.20;99.90;;;;;;5036139;28;19920;-66
2022/07/09 08:21:12;;;;;;;;;;;21.20;99.90;;;;;;5042335;28;20403;-66
2022/07/09 08:24:00;;;;;;;;;;;21.70;99.90;;;;;;5041887;28;19920;-67
2022/07/09 08:26:24;;;;;;;;;;;22.20;99.90;;;;;;5043565;28;20027;-67
2022/07/09 08:28:50;;;;;;;;;;;23.00;99.90;;;;;;5045419;28;19996;-67
2022/07/09 08:31:17;;;;;;;;;;;23.20;99.90;;;;;;5045638;28;20004;-67
2022/07/09 08:33:42;;;;;;;;;;;23.80;99.90;;;;;;5045693;28;19917;-67
2022/07/09 08:36:08;;;;;;;;;;;24.40;99.90;;;;;;5046811;28;19913;-67
2022/07/09 08:38:33;;;;;;;;;;;25.10;99.70;;;;;;5045511;28;19923;-67
2022/07/09 08:41:00;;;;;;;;;;;25.40;98.10;;;;;;5044305;28;19916;-67
2022/07/09 08:43:27;;;;;;;;;;;24.30;98.60;;;;;;5045812;28;19919;-67
2022/07/09 08:45:56;;;;;;;;;;;24.20;99.90;;;;;;5027984;28;19944;-67
2022/07/09 08:48:21;;;;;;;;;;;24.70;99.30;;;;;;5051364;28;20273;-65
2022/07/09 08:50:48;;;;;;;;;;;24.80;96.90;;;;;;5050997;28;19939;-65
2022/07/09 08:53:16;;;;;;;;;;;24.60;98.00;;;;;;5049642;28;19915;-65
2022/07/09 08:55:41;;;;;;;;;;;24.70;98.20;;;;;;5031911;28;19921;-65
2022/07/09 08:58:08;;;;;;;;;;;24.50;98.30;;;;;;5050604;28;19913;-65
2022/07/09 09:00:33;;;;;;;;;;;24.60;97.40;;;;;;5053230;28;19916;-65
2022/07/09 09:02:59;;;;;;;;;;;24.40;98.30;;;;;;5071518;28;19919;-65
2022/07/09 09:05:24;;;;;;;;;;;24.60;99.10;;;;;;5071723;28;19909;-65
2022/07/09 09:07:50;;;;;;;;;;;24.70;98.40;;;;;;5066367;28;19912;-65
2022/07/09 09:10:22;;;;;;;;;;;23.70;99.90;;;;;;5070831;28;20033;-65
2022/07/09 09:12:48;;;;;;;;;;;23.50;99.90;;;;;;5053563;28;19908;-65
2022/07/09 09:15:17;;;;;;;;;;;23.20;99.90;;;;;;5072391;28;19916;-65
2022/07/09 09:17:43;;;;;;;;;;;23.90;99.90;;;;;;5065171;28;19932;-64
2022/07/09 09:20:12;;;;;;;;;;;23.60;99.90;;;;;;5052593;28;19915;-65
2022/07/09 09:22:43;;;;;;;;;;;23.60;99.70;;;;;;5071499;28;19913;-65
2022/07/09 09:25:14;;;;;;;;;;;24.10;99.60;;;;;;5067795;28;20587;-65
2022/07/09 09:27:40;;;;;;;;;;;24.10;99.20;;;;;;5069861;28;20415;-66
2022/07/09 09:30:09;;;;;;;;;;;24.10;99.00;;;;;;5072333;28;19908;-65
2022/07/09 09:32:34;;;;;;;;;;;24.40;99.40;;;;;;5071544;28;20335;-65
2022/07/09 09:35:02;;;;;;;;;;;24.30;97.80;;;;;;5069729;28;19915;-65
2022/07/09 09:37:29;;;;;;;;;;;24.30;97.70;;;;;;5070717;28;19916;-65
2022/07/09 09:39:55;;;;;;;;;;;24.20;98.00;;;;;;5071997;28;20367;-65
2022/07/09 09:42:23;;;;;;;;;;;24.10;98.40;;;;;;5067279;28;19923;-65
2022/07/09 09:44:49;;;;;;;;;;;24.30;98.50;;;;;;5067525;28;19916;-65
2022/07/09 09:47:16;;;;;;;;;;;23.90;99.30;;;;;;5070308;28;19909;-65
2022/07/09 09:49:42;;;;;;;;;;;23.70;99.90;;;;;;5069754;28;19956;-65
2022/07/09 09:52:11;;;;;;;;;;;23.80;99.80;;;;;;5072050;28;19946;-66
2022/07/09 09:54:37;;;;;;;;;;;23.50;99.90;;;;;;5065733;28;19916;-66
2022/07/09 09:57:07;;;;;;;;;;;23.10;99.90;;;;;;5043621;28;19909;-66
2022/07/09 09:59:33;;;;;;;;;;;22.70;99.90;;;;;;5069892;28;20513;-66
2022/07/09 10:02:00;;;;;;;;;;;22.60;99.90;;;;;;5070036;28;19920;-66
2022/07/09 10:04:25;;;;;;;;;;;22.80;99.90;;;;;;5053176;28;20307;-66
2022/07/09 10:06:53;;;;;;;;;;;22.90;99.90;;;;;;5070073;28;19916;-66
2022/07/09 10:09:19;;;;;;;;;;;22.90;99.90;;;;;;5052237;28;19908;-66
2022/07/09 10:11:46;;;;;;;;;;;23.20;99.90;;;;;;5050706;28;19974;-66
2022/07/09 10:14:28;;;;;;;;;;;23.40;99.80;;;;;;5071387;28;19921;-67
2022/07/09 10:16:54;;;;;;;;;;;23.70;99.00;;;;;;5070840;28;19966;-66
2022/07/09 10:19:26;;;;;;;;;;;23.90;98.80;;;;;;5047150;28;19916;-66
2022/07/09 10:21:53;;;;;;;;;;;23.70;99.00;;;;;;5068613;28;19928;-67
2022/07/09 10:24:28;;;;;;;;;;;23.70;98.00;;;;;;5070618;28;19966;-67
2022/07/09 10:27:07;;;;;;;;;;;23.50;98.90;;;;;;5070124;28;19916;-66
2022/07/09 10:29:33;;;;;;;;;;;24.00;99.00;;;;;;5051643;28;20006;-67
2022/07/09 10:31:59;;;;;;;;;;;24.10;97.90;;;;;;5070195;28;19912;-67
2022/07/09 10:34:30;;;;;;;;;;;24.30;97.30;;;;;;5070618;28;19999;-67
2022/07/09 10:36:57;;;;;;;;;;;24.30;97.40;;;;;;5070278;28;19915;-66
2022/07/09 10:39:22;;;;;;;;;;;24.00;98.30;;;;;;5052550;28;19909;-67
2022/07/09 10:41:57;;;;;;;;;;;23.50;98.50;;;;;;5065773;28;19943;-67
2022/07/09 10:44:25;;;;;;;;;;;23.20;99.60;;;;;;5046967;28;19943;-67
2022/07/09 10:46:58;;;;;;;;;;;23.10;99.20;;;;;;5068651;28;19912;-67
2022/07/09 10:49:24;;;;;;;;;;;23.10;99.90;;;;;;5068741;28;19934;-66
2022/07/09 10:51:54;;;;;;;;;;;23.00;99.70;;;;;;5065549;28;19912;-67
2022/07/09 10:54:20;;;;;;;;;;;23.20;99.00;;;;;;5048109;28;20763;-67
2022/07/09 10:56:46;;;;;;;;;;;23.60;98.60;;;;;;5048251;28;19999;-67
2022/07/09 10:59:15;;;;;;;;;;;24.30;98.10;;;;;;5045886;28;19977;-67
2022/07/09 11:01:41;;;;;;;;;;;24.40;97.40;;;;;;5068480;28;20020;-67
2022/07/09 11:04:06;;;;;;;;;;;24.50;96.20;;;;;;5047250;28;20007;-67
2022/07/09 11:06:32;;;;;;;;;;;24.40;95.90;;;;;;5060248;28;19920;-67
2022/07/09 11:08:58;;;;;;;;;;;24.40;96.50;;;;;;5068342;28;19918;-67
2022/07/09 11:11:23;;;;;;;;;;;23.80;97.10;;;;;;5068117;28;20732;-67
2022/07/09 11:13:50;;;;;;;;;;;23.80;97.50;;;;;;5064544;28;19920;-67
2022/07/09 11:16:21;;;;;;;;;;;24.20;97.30;;;;;;5057442;28;20360;-67
2022/07/09 11:18:47;;;;;;;;;;;24.30;96.50;;;;;;5063632;28;19919;-67
2022/07/09 11:21:12;;;;;;;;;;;24.40;96.70;;;;;;5047486;28;19913;-67
2022/07/09 11:23:37;;;;;;;;;;;24.50;95.70;;;;;;5064511;28;19931;-67
2022/07/09 11:26:03;;;;;;;;;;;24.90;95.50;;;;;;5063857;28;20001;-67
2022/07/09 11:28:29;;;;;;;;;;;25.10;94.80;;;;;;5069823;28;19935;-67
2022/07/09 11:31:01;;;;;;;;;;;24.80;95.00;;;;;;5057065;28;19947;-67
2022/07/09 11:33:27;;;;;;;;;;;24.70;95.20;;;;;;5066585;28;19904;-67
2022/07/09 11:35:53;;;;;;;;;;;25.50;95.00;;;;;;5054620;28;19934;-67
2022/07/09 11:38:18;;;;;;;;;;;25.90;93.70;;;;;;5067745;28;20256;-67
2022/07/09 11:40:44;;;;;;;;;;;26.40;92.40;;;;;;5079604;28;20353;-68
2022/07/09 11:43:15;;;;;;;;;;;27.00;92.20;;;;;;5087589;28;19913;-68
2022/07/09 11:45:51;;;;;;;;;;;28.30;91.20;;;;;;5052639;28;19939;-67
2022/07/09 11:48:16;;;;;;;;;;;27.90;89.10;;;;;;5066936;28;19912;-67
2022/07/09 11:50:43;;;;;;;;;;;27.20;90.40;;;;;;5067745;28;19934;-67
2022/07/09 11:53:18;;;;;;;;;;;26.60;92.00;;;;;;5069072;28;20295;-65
2022/07/09 11:55:44;;;;;;;;;;;27.50;90.60;;;;;;5068392;28;19908;-64
2022/07/09 11:58:09;;;;;;;;;;;27.30;89.60;;;;;;5059927;28;19923;-63
2022/07/09 12:00:39;;;;;;;;;;;26.90;90.70;;;;;;5065356;28;20506;-63
2022/07/09 12:03:05;;;;;;;;;;;26.30;90.50;;;;;;5068250;28;20383;-63
2022/07/09 12:05:31;;;;;;;;;;;25.80;91.30;;;;;;5065566;28;20011;-63
2022/07/09 12:08:03;;;;;;;;;;;25.20;93.50;;;;;;5058626;28;19917;-63
2022/07/09 12:10:39;;;;;;;;;;;24.70;93.80;;;;;;5061617;28;19966;-63
2022/07/09 12:13:05;;;;;;;;;;;24.10;95.10;;;;;;5059592;28;19920;-63
2022/07/09 12:15:31;;;;;;;;;;;23.60;96.50;;;;;;5057880;28;19923;-63
2022/07/09 12:17:58;;;;;;;;;;;23.40;99.90;;;;;;5057329;28;19918;-63
2022/07/09 12:20:24;;;;;;;;;;;22.90;99.90;;;;;;5061899;28;20939;-66
2022/07/09 12:22:50;;;;;;;;;;;22.20;99.90;;;;;;5048106;28;20326;-63
2022/07/09 12:25:16;;;;;;;;;;;21.50;99.90;;;;;;5066601;28;20363;-63
2022/07/09 12:27:42;;;;;;;;;;;21.00;99.90;;;;;;5064371;28;19921;-63
2022/07/09 12:30:07;;;;;;;;;;;20.80;99.90;;;;;;5064919;28;20296;-63
2022/07/09 12:32:34;;;;;;;;;;;20.70;99.90;;;;;;5064109;28;19996;-63
2022/07/09 12:35:00;;;;;;;;;;;20.60;99.90;;;;;;5047005;28;19913;-63
2022/07/09 12:37:25;;;;;;;;;;;20.70;99.90;;;;;;5061058;28;19931;-63
2022/07/09 12:39:53;;;;;;;;;;;20.70;99.90;;;;;;5064669;28;20020;-63
2022/07/09 12:42:19;;;;;;;;;;;20.90;99.90;;;;;;5042240;28;19920;-63
2022/07/09 12:44:45;;;;;;;;;;;20.90;99.90;;;;;;5064341;28;19924;-63
2022/07/09 12:47:10;;;;;;;;;;;21.20;99.90;;;;;;5065815;28;19919;-63
2022/07/09 12:49:36;;;;;;;;;;;21.20;99.90;;;;;;5064606;28;20242;-63
2022/07/09 12:52:01;;;;;;;;;;;21.10;99.90;;;;;;5063720;28;19919;-63
2022/07/09 12:54:27;;;;;;;;;;;20.70;99.90;;;;;;5060457;28;20700;-63
2022/07/09 12:56:55;;;;;;;;;;;20.50;99.90;;;;;;5064857;28;19916;-66
2022/07/09 12:59:20;;;;;;;;;;;20.40;99.90;;;;;;5062704;28;20391;-67
2022/07/09 13:01:46;;;;;;;;;;;20.40;99.90;;;;;;5064261;28;19948;-67
2022/07/09 13:04:11;;;;;;;;;;;20.30;99.90;;;;;;5067555;28;19935;-67
2022/07/09 13:06:37;;;;;;;;;;;20.30;99.90;;;;;;5066203;28;19912;-66
2022/07/09 13:09:03;;;;;;;;;;;20.30;99.90;;;;;;5065724;28;19962;-66
2022/07/09 13:11:29;;;;;;;;;;;20.10;99.90;;;;;;5064439;28;19939;-67
2022/07/09 13:13:55;;;;;;;;;;;19.70;99.90;;;;;;5065609;28;20368;-64
2022/07/09 13:16:20;;;;;;;;;;;19.20;99.90;;;;;;5045371;28;19936;-66
2022/07/09 13:18:46;;;;;;;;;;;18.80;99.90;;;;;;5064559;28;20016;-66
2022/07/09 13:21:11;;;;;;;;;;;18.50;99.90;;;;;;5046315;28;19925;-66
2022/07/09 13:23:37;;;;;;;;;;;18.50;99.90;;;;;;5064451;28;19920;-66
2022/07/09 13:26:03;;;;;;;;;;;18.50;99.90;;;;;;5066301;28;19957;-66
2022/07/09 13:28:28;;;;;;;;;;;18.50;99.90;;;;;;5044008;28;19912;-65
2022/07/09 13:30:54;;;;;;;;;;;18.30;99.90;;;;;;5045534;28;19935;-65
2022/07/09 13:33:19;;;;;;;;;;;18.40;99.90;;;;;;5065783;28;19920;-66
2022/07/09 13:35:45;;;;;;;;;;;18.40;99.90;;;;;;5051845;28;19920;-66
2022/07/09 13:38:10;;;;;;;;;;;18.60;99.90;;;;;;5047025;28;19991;-66
2022/07/09 13:40:36;;;;;;;;;;;18.70;99.90;;;;;;5045822;28;19940;-66
2022/07/09 13:43:02;;;;;;;;;;;18.60;99.90;;;;;;5069202;28;19920;-65
2022/07/09 13:45:28;;;;;;;;;;;18.40;99.90;;;;;;5062451;28;19917;-66
2022/07/09 13:47:54;;;;;;;;;;;18.60;99.90;;;;;;5045308;28;19936;-66
2022/07/09 13:50:20;;;;;;;;;;;18.70;99.90;;;;;;5047476;28;20013;-66
2022/07/09 13:52:45;;;;;;;;;;;18.70;99.90;;;;;;5065247;28;19975;-66
2022/07/09 13:55:11;;;;;;;;;;;18.60;99.90;;;;;;5066463;28;19909;-66
2022/07/09 13:57:36;;;;;;;;;;;18.60;99.90;;;;;;5065192;28;19924;-66
2022/07/09 14:00:03;;;;;;;;;;;18.80;99.90;;;;;;5065485;28;20015;-66
2022/07/09 14:02:30;;;;;;;;;;;18.80;99.90;;;;;;5063587;28;19932;-66
2022/07/09 14:04:56;;;;;;;;;;;18.90;99.90;;;;;;5047502;28;20464;-66
2022/07/09 14:07:29;;;;;;;;;;;19.20;99.90;;;;;;5064433;28;20397;-66
2022/07/09 14:09:55;;;;;;;;;;;19.40;99.90;;;;;;5063189;28;20292;-66
2022/07/09 14:12:23;;;;;;;;;;;20.10;99.90;;;;;;5043463;28;19917;-64